Copeville, Texas
Current Conditions -  °F | °C
As of 3:35 AM on Thursday 23 Oct 2014 (Local Time) from KF46 Reporting Station
Overcast Overcast  
Wind Chill: 63°   Ceiling: 11000
Heat Index: 63°   Visibility: 10mi
Dew Point: 54°   Wind: 0mph
Humidity: 72%   Direction: NA
Pressure: 30.12"   Gusts: NA
Location:  33.08°N, 96.42°W
Report Text: KF46 230835Z AUTO 00000KT 10SM OVC110 17/12 A3012 RMK AO2 T01700120
Loading
Personal Weather Stations






























Interactive Weather Map
Tropical Storm Tracking
New forecast layout! Learn more

10-Day Weather Forecast

Advertisements
Track Severe Weather on mobile